Time;durP1;ratioP1;P1;durP2;ratioP2;P2;SDS_P1;SDS_P2;PMS_P1;PMS_P2;Temp;Humidity;BMP_temperature;BMP_pressure;BME280_temperature;BME280_humidity;BME280_pressure;Samples;Min_cycle;Max_cycle;Signal;HPM_P1;HPM_P2
2021/01/31 00:04:30;;;;;;;50.48;25.48;;;;;;;0.82;63.26;97821.54;258216;1116;115211;-72
2021/01/31 00:09:32;;;;;;;50.03;24.45;;;;;;;0.80;62.93;97808.49;258742;1116;115119;-71
2021/01/31 00:14:35;;;;;;;40.95;21.68;;;;;;;0.82;62.81;97824.16;258908;1114;115352;-71
2021/01/31 00:19:38;;;;;;;43.85;24.13;;;;;;;0.80;63.13;97826.83;258841;1114;115647;-71
2021/01/31 00:24:41;;;;;;;53.08;27.13;;;;;;;0.84;62.99;97830.16;258891;1115;115008;-71
2021/01/31 00:29:44;;;;;;;54.50;27.43;;;;;;;0.85;62.95;97835.35;258850;1114;114891;-70
2021/01/31 00:34:46;;;;;;;52.00;25.45;;;;;;;0.87;62.74;97830.03;256253;1116;115121;-71
2021/01/31 00:39:51;;;;;;;55.83;27.78;;;;;;;0.86;62.68;97831.81;258458;1115;115215;-70
2021/01/31 00:44:54;;;;;;;49.73;25.95;;;;;;;0.87;62.92;97840.52;258629;1116;115260;-70
2021/01/31 00:49:57;;;;;;;54.25;25.45;;;;;;;0.86;62.33;97842.28;258557;1115;115216;-70
2021/01/31 00:55:00;;;;;;;53.95;26.05;;;;;;;0.86;62.99;97844.91;258087;1115;115136;-70
2021/01/31 01:00:25;;;;;;;53.97;25.30;;;;;;;0.89;62.98;97842.16;258811;1114;115015;-70
2021/01/31 01:05:30;;;;;;;50.25;24.73;;;;;;;0.88;62.67;97850.06;258755;1114;115180;-69
2021/01/31 01:10:36;;;;;;;52.20;25.53;;;;;;;0.82;62.58;97845.11;258787;1116;115137;-69
2021/01/31 01:15:39;;;;;;;49.33;26.13;;;;;;;0.79;62.41;97845.23;258932;1115;115560;-69
2021/01/31 01:20:42;;;;;;;52.93;25.58;;;;;;;0.72;62.62;97839.40;258641;1116;115205;-70
2021/01/31 01:25:45;;;;;;;50.10;25.48;;;;;;;0.64;62.24;97849.32;258960;1114;115164;-69
2021/01/31 01:30:47;;;;;;;54.73;28.33;;;;;;;0.61;62.48;97839.85;258796;1115;115324;-69
2021/01/31 01:35:49;;;;;;;55.87;27.13;;;;;;;0.67;62.55;97833.48;258763;1116;115130;-69
2021/01/31 01:40:56;;;;;;;53.83;26.03;;;;;;;0.70;62.67;97830.74;258750;1116;114973;-70
2021/01/31 01:46:19;;;;;;;30.93;15.38;;;;;;;0.75;62.94;97841.02;258883;1116;115291;-70
2021/01/31 01:51:31;;;;;;;25.98;13.73;;;;;;;0.77;62.29;97837.42;258769;1115;115167;-70
2021/01/31 01:56:42;;;;;;;25.40;13.28;;;;;;;0.78;62.57;97839.15;258712;1116;115360;-69
2021/01/31 02:02:04;;;;;;;21.50;12.63;;;;;;;0.75;62.52;97841.89;258916;1114;115212;-70
2021/01/31 02:07:09;;;;;;;20.03;11.70;;;;;;;0.72;62.56;97843.79;258685;1116;116442;-69
2021/01/31 02:12:13;;;;;;;23.05;10.93;;;;;;;0.70;62.08;97852.53;258830;1115;115485;-70
2021/01/31 02:17:22;;;;;;;18.48;10.48;;;;;;;0.67;62.21;97857.89;258725;1114;115702;-70
2021/01/31 02:22:40;;;;;;;20.20;11.18;;;;;;;0.67;62.11;97850.05;258991;1114;114971;-70
2021/01/31 02:28:06;;;;;;;19.48;10.50;;;;;;;0.68;61.84;97845.69;258799;1115;115014;-70
2021/01/31 02:33:36;;;;;;;23.13;11.25;;;;;;;0.66;62.09;97864.05;258829;1114;115370;-70
2021/01/31 02:38:55;;;;;;;19.00;9.95;;;;;;;0.62;61.93;97862.48;258872;1114;116032;-70
2021/01/31 02:44:01;;;;;;;19.03;9.63;;;;;;;0.57;61.35;97872.28;258752;1116;114857;-71
2021/01/31 02:49:25;;;;;;;19.93;9.35;;;;;;;0.55;61.32;97870.66;258912;1113;114999;-71
2021/01/31 02:54:51;;;;;;;16.28;9.20;;;;;;;0.52;61.53;97871.63;258773;1115;114760;-71
2021/01/31 03:00:01;;;;;;;17.13;9.30;;;;;;;0.51;61.57;97885.64;258823;1115;114777;-70
2021/01/31 03:05:16;;;;;;;17.50;9.75;;;;;;;0.47;61.52;97879.64;258818;1115;114852;-70
2021/01/31 03:10:45;;;;;;;20.33;10.88;;;;;;;0.44;61.33;97889.38;258901;1115;114828;-70
2021/01/31 03:15:54;;;;;;;14.53;8.63;;;;;;;0.44;61.03;97894.62;258848;1115;115180;-70
2021/01/31 03:21:09;;;;;;;19.33;10.03;;;;;;;0.40;61.04;97893.05;258755;1114;114830;-70
2021/01/31 03:26:22;;;;;;;17.68;8.85;;;;;;;0.34;60.79;97899.39;258869;1114;115225;-70
2021/01/31 03:31:29;;;;;;;18.63;8.78;;;;;;;0.26;60.88;97901.44;258923;1115;114928;-70
2021/01/31 03:36:34;;;;;;;18.13;9.15;;;;;;;0.19;60.43;97908.67;258877;1116;115000;-70
2021/01/31 03:41:37;;;;;;;15.60;8.90;;;;;;;0.11;60.80;97909.89;258729;1115;115468;-70
2021/01/31 03:46:51;;;;;;;17.40;8.95;;;;;;;0.02;60.41;97924.16;258720;1114;115232;-70
2021/01/31 03:51:54;;;;;;;17.20;9.15;;;;;;;-0.06;60.56;97928.83;258773;1113;115239;-69
2021/01/31 03:57:06;;;;;;;19.55;9.13;;;;;;;-0.14;60.16;97925.63;258807;1115;115076;-70
2021/01/31 04:02:12;;;;;;;19.53;10.33;;;;;;;-0.23;60.34;97928.61;258843;1116;115523;-69
2021/01/31 04:07:30;;;;;;;17.50;9.85;;;;;;;-0.31;60.36;97937.55;258827;1114;115499;-71
2021/01/31 04:12:36;;;;;;;20.90;10.48;;;;;;;-0.39;60.30;97947.44;258831;1116;115313;-70
2021/01/31 04:17:43;;;;;;;17.28;10.55;;;;;;;-0.45;60.74;97954.64;258777;1114;115469;-70
2021/01/31 04:22:46;;;;;;;21.73;11.25;;;;;;;-0.47;60.09;97964.31;258856;1115;115357;-71
2021/01/31 04:27:49;;;;;;;19.55;10.93;;;;;;;-0.50;60.39;97965.27;258779;1116;115407;-69
2021/01/31 04:32:52;;;;;;;22.20;11.05;;;;;;;-0.53;60.59;97967.98;258850;1116;115134;-70
2021/01/31 04:37:55;;;;;;;25.43;11.83;;;;;;;-0.59;60.33;97963.81;258783;1115;115367;-69
2021/01/31 04:43:01;;;;;;;23.18;11.65;;;;;;;-0.60;60.41;97967.34;258531;1115;115247;-71
2021/01/31 04:48:09;;;;;;;23.30;11.80;;;;;;;-0.64;59.89;97977.96;258725;1113;115869;-71
2021/01/31 04:53:31;;;;;;;20.23;11.50;;;;;;;-0.68;59.94;97973.72;258947;1114;115407;-70
2021/01/31 04:59:16;;;;;;;23.90;11.57;;;;;;;-0.75;59.35;97976.56;258934;1115;115331;-70
2021/01/31 05:04:38;;;;;;;21.55;10.55;;;;;;;-0.86;59.66;97988.26;258247;1113;115386;-69
2021/01/31 05:09:44;;;;;;;16.70;8.95;;;;;;;-0.92;58.99;97991.91;258057;1115;115775;-69
2021/01/31 05:15:24;;;;;;;19.00;8.85;;;;;;;-0.92;59.03;97998.91;258347;1116;115619;-73
2021/01/31 05:20:34;;;;;;;18.88;8.88;;;;;;;-0.89;59.33;98004.88;258939;1114;115362;-71
2021/01/31 05:25:46;;;;;;;16.27;8.67;;;;;;;-0.85;58.59;98011.73;257970;1115;115207;-70
2021/01/31 05:30:56;;;;;;;15.30;8.28;;;;;;;-0.91;58.77;98011.08;258043;1114;115339;-72
2021/01/31 05:36:07;;;;;;;18.93;7.70;;;;;;;-0.96;58.02;98017.27;258757;1114;115928;-73
2021/01/31 05:41:34;;;;;;;15.88;7.43;;;;;;;-1.02;58.02;98030.55;258852;1113;115517;-73
2021/01/31 05:46:42;;;;;;;17.48;7.08;;;;;;;-1.08;57.78;98035.11;258732;1114;115159;-71
2021/01/31 05:51:45;;;;;;;12.03;6.70;;;;;;;-1.07;57.69;98049.87;258809;1116;115487;-71
2021/01/31 05:56:48;;;;;;;12.58;6.25;;;;;;;-1.05;57.65;98058.52;258707;1115;115235;-70
2021/01/31 06:01:56;;;;;;;15.63;7.18;;;;;;;-1.01;57.60;98065.34;258722;1116;115058;-70
2021/01/31 06:07:08;;;;;;;13.58;7.50;;;;;;;-0.97;57.83;98072.17;258663;1115;115046;-71
2021/01/31 06:12:19;;;;;;;15.05;7.23;;;;;;;-1.00;57.28;98083.56;258828;1114;115219;-72
2021/01/31 06:17:27;;;;;;;15.78;7.98;;;;;;;-1.02;57.19;98085.38;258741;1115;115092;-72
2021/01/31 06:22:40;;;;;;;17.43;8.55;;;;;;;-1.07;57.31;98081.20;258622;1116;115457;-72
2021/01/31 06:27:43;;;;;;;22.43;9.43;;;;;;;-1.14;57.19;98087.51;258919;1116;115284;-72
2021/01/31 06:32:47;;;;;;;20.85;9.73;;;;;;;-1.18;56.86;98093.73;258751;1115;115044;-73
2021/01/31 06:38:01;;;;;;;23.38;9.58;;;;;;;-1.17;57.19;98092.81;258716;1115;115397;-72
2021/01/31 06:43:09;;;;;;;20.40;9.83;;;;;;;-1.20;57.07;98098.98;258012;1113;115083;-74
2021/01/31 06:48:23;;;;;;;20.50;9.78;;;;;;;-1.20;56.80;98107.66;258882;1114;115946;-74
2021/01/31 06:53:44;;;;;;;19.30;9.63;;;;;;;-1.22;57.23;98113.84;258843;1115;115107;-74
2021/01/31 06:59:04;;;;;;;18.30;8.90;;;;;;;-1.25;56.37;98116.55;258812;1115;115161;-74
2021/01/31 07:04:18;;;;;;;19.30;9.00;;;;;;;-1.31;56.27;98119.33;258863;1112;115869;-73
2021/01/31 07:09:41;;;;;;;20.48;10.23;;;;;;;-1.36;56.85;98122.05;258818;1114;115583;-71
2021/01/31 07:14:43;;;;;;;16.23;9.25;;;;;;;-1.33;56.50;98124.58;258699;1115;115501;-72
2021/01/31 07:19:59;;;;;;;17.70;8.83;;;;;;;-1.28;56.83;98125.31;258435;1115;115060;-73
2021/01/31 07:25:25;;;;;;;16.90;8.75;;;;;;;-1.25;56.50;98133.05;258903;1114;115183;-73
2021/01/31 07:30:35;;;;;;;16.65;7.05;;;;;;;-1.20;56.54;98135.52;258722;1115;115376;-73
2021/01/31 07:35:49;;;;;;;13.65;7.33;;;;;;;-1.17;56.52;98132.82;258842;1115;115045;-75
2021/01/31 07:40:56;;;;;;;16.60;7.73;;;;;;;-1.18;56.52;98132.88;257956;1113;115268;-71
2021/01/31 07:46:02;;;;;;;15.23;7.85;;;;;;;-1.19;55.84;98145.05;258757;1115;115253;-72
2021/01/31 07:51:05;;;;;;;14.73;7.80;;;;;;;-1.23;56.27;98146.89;258322;1116;115475;-72
2021/01/31 07:56:37;;;;;;;14.73;7.95;;;;;;;-1.25;56.32;98156.55;258444;1115;115222;-73
2021/01/31 08:01:39;;;;;;;15.45;7.80;;;;;;;-1.20;56.22;98157.25;258719;1114;115276;-72
2021/01/31 08:06:51;;;;;;;15.23;8.08;;;;;;;-1.18;56.00;98148.55;258861;1113;115255;-71
2021/01/31 08:12:05;;;;;;;15.50;7.58;;;;;;;-1.18;56.14;98151.16;258058;1115;115075;-72
2021/01/31 08:17:08;;;;;;;15.50;8.43;;;;;;;-1.14;56.33;98163.21;258634;1113;115209;-70
2021/01/31 08:22:34;;;;;;;21.33;9.03;;;;;;;-1.18;55.69;98153.77;258852;1116;115572;-70
2021/01/31 08:27:40;;;;;;;25.15;9.88;;;;;;;-1.18;56.11;98162.45;258061;1112;115222;-74
2021/01/31 08:32:58;;;;;;;17.58;8.65;;;;;;;-1.11;55.85;98163.97;258560;1115;115363;-73
2021/01/31 08:38:24;;;;;;;17.70;8.83;;;;;;;-1.01;55.82;98165.41;258664;1115;115524;-72
2021/01/31 08:43:37;;;;;;;17.93;8.75;;;;;;;-0.90;56.16;98167.70;258723;1113;115101;-74
2021/01/31 08:48:40;;;;;;;19.68;9.93;;;;;;;-0.80;55.61;98168.28;258748;1116;115018;-73
2021/01/31 08:53:43;;;;;;;22.65;10.63;;;;;;;-0.71;55.89;98162.78;258729;1115;115147;-72
2021/01/31 08:58:45;;;;;;;17.83;8.98;;;;;;;-0.64;55.50;98172.14;258627;1116;115182;-73
2021/01/31 09:03:47;;;;;;;17.25;8.43;;;;;;;-0.50;55.80;98163.86;257492;1114;115346;-72
2021/01/31 09:08:54;;;;;;;18.83;9.00;;;;;;;-0.39;55.49;98164.37;258112;1116;115736;-74
2021/01/31 09:14:11;;;;;;;15.60;9.08;;;;;;;-0.17;55.77;98161.05;258786;1116;115365;-74
2021/01/31 09:19:22;;;;;;;16.78;9.03;;;;;;;0.07;55.29;98159.37;258219;1115;115181;-74
2021/01/31 09:24:26;;;;;;;14.45;8.05;;;;;;;0.30;55.58;98166.43;258330;1116;115123;-73
2021/01/31 09:29:31;;;;;;;13.95;7.08;;;;;;;0.43;54.73;98165.95;258714;1115;114904;-73
2021/01/31 09:34:40;;;;;;;10.20;5.83;;;;;;;0.64;54.72;98153.84;258726;1116;115105;-74
2021/01/31 09:39:43;;;;;;;10.73;5.45;;;;;;;0.82;54.88;98160.20;258727;1114;115189;-74
2021/01/31 09:44:52;;;;;;;13.80;7.03;;;;;;;1.03;54.48;98152.45;258254;1116;114927;-74
2021/01/31 09:49:58;;;;;;;11.68;7.00;;;;;;;1.17;54.32;98148.38;258725;1114;115165;-76
2021/01/31 09:55:23;;;;;;;13.08;6.55;;;;;;;1.20;53.67;98157.90;258864;1115;115245;-74
2021/01/31 10:00:29;;;;;;;12.20;6.70;;;;;;;1.22;53.78;98158.67;258765;1114;115264;-75
2021/01/31 10:05:35;;;;;;;15.08;7.83;;;;;;;1.23;53.57;98155.16;258648;1116;114870;-75
2021/01/31 10:10:43;;;;;;;13.60;6.80;;;;;;;1.31;53.76;98163.56;258677;1116;114957;-75
2021/01/31 10:15:54;;;;;;;14.35;6.93;;;;;;;1.38;53.42;98151.08;258693;1116;115657;-74
2021/01/31 10:21:29;;;;;;;12.03;6.33;;;;;;;1.35;53.04;98154.66;258797;1116;115004;-75
2021/01/31 10:26:32;;;;;;;13.20;6.88;;;;;;;1.28;53.11;98150.58;258553;1115;114985;-73
2021/01/31 10:31:39;;;;;;;15.08;7.78;;;;;;;1.40;53.35;98150.11;258792;1116;114923;-75
2021/01/31 10:36:44;;;;;;;13.83;7.60;;;;;;;1.50;53.03;98150.60;258775;1115;115645;-72
2021/01/31 10:41:47;;;;;;;13.25;7.23;;;;;;;1.62;52.85;98157.96;258517;1115;115682;-72
2021/01/31 10:46:50;;;;;;;14.90;8.23;;;;;;;1.70;52.52;98148.92;258767;1115;115129;-72
2021/01/31 10:51:53;;;;;;;14.08;7.83;;;;;;;1.89;52.92;98153.36;257685;1116;115053;-75
2021/01/31 10:56:55;;;;;;;13.55;8.20;;;;;;;2.11;53.09;98155.96;258690;1116;115416;-75
2021/01/31 11:01:58;;;;;;;17.03;8.13;;;;;;;2.19;52.60;98163.50;258766;1116;114722;-76
2021/01/31 11:07:00;;;;;;;12.80;7.70;;;;;;;2.16;52.34;98163.63;258728;1115;115414;-74
2021/01/31 11:12:03;;;;;;;12.35;7.83;;;;;;;2.14;51.97;98160.23;258804;1115;115173;-77
2021/01/31 11:17:05;;;;;;;14.73;8.40;;;;;;;2.18;52.05;98146.05;258870;1115;115118;-76
2021/01/31 11:22:08;;;;;;;15.30;7.68;;;;;;;2.28;52.18;98146.52;258901;1115;115428;-77
2021/01/31 11:27:11;;;;;;;17.58;9.23;;;;;;;2.28;52.08;98142.13;258834;1114;114851;-76
2021/01/31 11:32:14;;;;;;;15.70;8.50;;;;;;;2.29;51.89;98149.06;258801;1115;115317;-78
2021/01/31 11:37:16;;;;;;;15.45;8.48;;;;;;;2.28;52.00;98147.38;258546;1112;114904;-77
2021/01/31 11:42:18;;;;;;;12.75;8.35;;;;;;;2.33;51.89;98140.13;258718;1115;115076;-75
2021/01/31 11:47:20;;;;;;;17.43;8.90;;;;;;;2.43;51.91;98142.37;258772;1114;115027;-74
2021/01/31 11:52:22;;;;;;;14.93;8.63;;;;;;;2.46;52.03;98148.34;258835;1114;115069;-73
2021/01/31 11:57:25;;;;;;;14.60;8.25;;;;;;;2.47;51.88;98143.94;258726;1116;114978;-74
2021/01/31 12:02:29;;;;;;;16.15;8.70;;;;;;;2.46;51.56;98140.46;258727;1112;114855;-73
2021/01/31 12:07:31;;;;;;;17.65;9.20;;;;;;;2.53;51.91;98130.55;258799;1115;114794;-75
2021/01/31 12:12:34;;;;;;;20.08;9.75;;;;;;;2.67;51.68;98132.55;258849;1116;115181;-75
2021/01/31 12:17:38;;;;;;;13.88;8.28;;;;;;;2.80;51.73;98125.83;259013;1115;114801;-74
2021/01/31 12:22:41;;;;;;;14.08;6.98;;;;;;;2.86;51.57;98122.92;258652;1116;114891;-74
2021/01/31 12:27:51;;;;;;;16.75;9.05;;;;;;;2.89;51.40;98114.91;258730;1116;115708;-73
2021/01/31 12:32:53;;;;;;;16.03;8.85;;;;;;;2.82;51.18;98122.22;258846;1114;114874;-78
2021/01/31 12:37:56;;;;;;;12.90;7.88;;;;;;;2.74;50.92;98118.22;258744;1116;115010;-74
2021/01/31 12:42:59;;;;;;;15.25;7.85;;;;;;;2.64;50.83;98122.18;258756;1114;114940;-75
2021/01/31 12:48:02;;;;;;;14.88;7.68;;;;;;;2.56;51.10;98109.40;258641;1115;114884;-74
2021/01/31 12:53:04;;;;;;;13.68;7.75;;;;;;;2.47;51.01;98115.05;258836;1115;115439;-74
2021/01/31 12:58:06;;;;;;;17.25;8.25;;;;;;;2.40;50.70;98113.62;258814;1115;115055;-73
2021/01/31 13:03:09;;;;;;;12.88;7.60;;;;;;;2.33;50.50;98118.28;258860;1114;115338;-74
2021/01/31 13:08:11;;;;;;;13.08;7.48;;;;;;;2.26;50.95;98122.09;258794;1114;115185;-74
2021/01/31 13:13:16;;;;;;;15.18;8.65;;;;;;;2.18;50.86;98116.34;258736;1115;114766;-73
2021/01/31 13:18:18;;;;;;;17.08;9.08;;;;;;;2.16;50.89;98115.54;258819;1115;114997;-73
2021/01/31 13:23:20;;;;;;;14.03;8.05;;;;;;;2.15;50.72;98113.84;258470;1116;115057;-72
2021/01/31 13:28:23;;;;;;;13.38;7.60;;;;;;;2.12;50.66;98117.44;258755;1115;115142;-73
2021/01/31 13:33:25;;;;;;;17.35;8.23;;;;;;;2.12;50.73;98120.06;258820;1113;114815;-73
2021/01/31 13:38:27;;;;;;;14.70;7.30;;;;;;;2.08;50.80;98119.34;258314;1116;115728;-74
2021/01/31 13:43:30;;;;;;;15.50;8.37;;;;;;;2.06;50.80;98125.57;258852;1116;114997;-72
2021/01/31 13:48:33;;;;;;;15.48;8.85;;;;;;;2.10;50.77;98127.98;258794;1116;115100;-72
2021/01/31 13:53:35;;;;;;;14.90;8.20;;;;;;;2.19;50.98;98129.38;258677;1113;115169;-73
2021/01/31 13:58:38;;;;;;;15.60;7.83;;;;;;;2.19;50.72;98124.13;258606;1115;115026;-74
2021/01/31 14:03:41;;;;;;;15.78;8.20;;;;;;;2.07;50.58;98122.90;258074;1116;115161;-74
2021/01/31 14:08:43;;;;;;;15.08;7.83;;;;;;;2.01;50.73;98117.05;258701;1116;114736;-73
2021/01/31 14:13:45;;;;;;;18.20;9.10;;;;;;;1.92;50.86;98120.91;257827;1115;115530;-73
2021/01/31 14:18:48;;;;;;;17.23;9.33;;;;;;;1.81;50.44;98125.76;258757;1115;115071;-74
2021/01/31 14:23:50;;;;;;;18.78;9.63;;;;;;;1.67;50.87;98125.48;258786;1114;114941;-76
2021/01/31 14:28:52;;;;;;;18.70;9.03;;;;;;;1.55;50.89;98121.56;258778;1115;114872;-75
2021/01/31 14:33:56;;;;;;;17.18;9.48;;;;;;;1.45;50.54;98123.70;258792;1115;115005;-75
2021/01/31 14:38:58;;;;;;;20.48;9.68;;;;;;;1.31;50.88;98115.54;257701;1113;115230;-74
2021/01/31 14:44:01;;;;;;;19.75;8.88;;;;;;;1.21;51.04;98117.66;258768;1116;115148;-73
2021/01/31 14:49:22;;;;;;;19.23;9.48;;;;;;;1.09;50.88;98119.02;258492;1114;115227;-73
2021/01/31 14:54:54;;;;;;;19.48;9.43;;;;;;;1.01;51.11;98113.20;258650;1116;115308;-72
2021/01/31 15:00:15;;;;;;;21.43;10.23;;;;;;;0.90;51.22;98104.91;258951;1115;115037;-72
2021/01/31 15:05:35;;;;;;;19.85;10.08;;;;;;;0.81;50.95;98102.63;258415;1116;115291;-73
2021/01/31 15:10:39;;;;;;;21.75;10.73;;;;;;;0.71;50.97;98099.50;258672;1116;115699;-72
2021/01/31 15:15:42;;;;;;;20.88;10.15;;;;;;;0.63;50.92;98099.79;258752;1116;115233;-72
2021/01/31 15:20:44;;;;;;;22.28;10.93;;;;;;;0.56;51.30;98106.17;258745;1114;115092;-73
2021/01/31 15:25:46;;;;;;;21.90;10.38;;;;;;;0.47;51.05;98101.27;258807;1115;115168;-73
2021/01/31 15:30:48;;;;;;;19.20;11.43;;;;;;;0.40;51.23;98100.63;258788;1114;115769;-73
2021/01/31 15:35:51;;;;;;;25.13;10.65;;;;;;;0.33;51.24;98100.91;258790;1116;115172;-76
2021/01/31 15:40:53;;;;;;;20.38;11.25;;;;;;;0.26;51.41;98099.42;258740;1115;114999;-76
2021/01/31 15:45:55;;;;;;;21.43;10.73;;;;;;;0.17;51.43;98093.63;258211;1115;116378;-74
2021/01/31 15:50:58;;;;;;;20.55;11.25;;;;;;;0.10;51.25;98097.38;258764;1115;115149;-75
2021/01/31 15:56:00;;;;;;;19.00;10.45;;;;;;;0.03;51.74;98103.70;258716;1115;116289;-77
2021/01/31 16:01:02;;;;;;;19.18;11.08;;;;;;;0.01;51.97;98102.06;258738;1116;115110;-75
2021/01/31 16:06:05;;;;;;;20.17;10.77;;;;;;;-0.03;52.33;98096.09;258610;1115;115397;-77
2021/01/31 16:11:07;;;;;;;23.85;12.40;;;;;;;-0.09;51.75;98098.91;257992;1116;115579;-75
2021/01/31 16:16:13;;;;;;;24.18;12.95;;;;;;;-0.18;52.29;98102.67;258857;1114;115209;-74
2021/01/31 16:21:17;;;;;;;24.78;13.35;;;;;;;-0.27;52.52;98111.70;258600;1115;115313;-74
2021/01/31 16:26:19;;;;;;;28.30;13.93;;;;;;;-0.39;51.83;98099.03;258908;1114;115416;-74
2021/01/31 16:31:21;;;;;;;34.78;15.50;;;;;;;-0.44;52.32;98100.95;258805;1115;115194;-73
2021/01/31 16:36:25;;;;;;;32.50;15.93;;;;;;;-0.54;52.17;98095.17;258798;1114;115286;-76
2021/01/31 16:41:27;;;;;;;37.25;16.00;;;;;;;-0.59;52.49;98097.06;258826;1115;115385;-75
2021/01/31 16:46:31;;;;;;;34.03;16.58;;;;;;;-0.64;52.21;98093.77;258779;1113;115536;-74
2021/01/31 16:51:34;;;;;;;38.10;17.43;;;;;;;-0.71;52.48;98094.87;258791;1114;115830;-74
2021/01/31 16:56:37;;;;;;;30.08;15.98;;;;;;;-0.77;52.57;98095.91;257140;1115;115999;-74
2021/01/31 17:01:41;;;;;;;38.55;17.65;;;;;;;-0.84;52.63;98104.84;258754;1116;115960;-74
2021/01/31 17:06:44;;;;;;;42.10;17.77;;;;;;;-0.90;52.46;98110.25;258509;1116;115279;-75
2021/01/31 17:11:47;;;;;;;44.15;20.23;;;;;;;-0.96;52.61;98113.04;258689;1115;116178;-75
2021/01/31 17:16:53;;;;;;;53.10;21.18;;;;;;;-1.01;52.56;98109.73;257578;1115;116563;-73
2021/01/31 17:22:03;;;;;;;52.20;23.05;;;;;;;-1.08;52.55;98109.06;257360;1114;115627;-73
2021/01/31 17:27:20;;;;;;;59.63;23.93;;;;;;;-1.13;52.84;98105.72;257263;1113;116650;-74
2021/01/31 17:32:32;;;;;;;71.83;31.28;;;;;;;-1.21;52.92;98108.56;257711;1115;115832;-74
2021/01/31 17:37:40;;;;;;;79.98;35.08;;;;;;;-1.22;52.84;98116.45;257780;1115;116971;-72
2021/01/31 17:42:43;;;;;;;77.00;34.45;;;;;;;-1.28;52.63;98108.80;257868;1113;115779;-74
2021/01/31 17:47:47;;;;;;;79.00;34.15;;;;;;;-1.32;52.89;98109.80;258320;1115;115315;-74
2021/01/31 17:52:57;;;;;;;84.85;34.18;;;;;;;-1.38;53.21;98110.83;257481;1115;116852;-72
2021/01/31 17:58:11;;;;;;;87.17;35.15;;;;;;;-1.44;52.42;98105.78;257426;1113;116767;-72
2021/01/31 18:03:24;;;;;;;81.03;32.95;;;;;;;-1.50;53.06;98108.55;257799;1116;115801;-73
2021/01/31 18:08:34;;;;;;;79.08;33.78;;;;;;;-1.57;53.25;98099.20;258063;1116;115315;-74
2021/01/31 18:13:42;;;;;;;90.40;34.13;;;;;;;-1.63;53.36;98100.25;258037;1114;115548;-73
2021/01/31 18:18:51;;;;;;;89.00;33.60;;;;;;;-1.64;53.32;98105.48;258349;1114;115166;-71
2021/01/31 18:23:55;;;;;;;96.03;34.35;;;;;;;-1.70;53.57;98099.56;257940;1116;115967;-73
2021/01/31 18:29:01;;;;;;;81.15;35.20;;;;;;;-1.75;53.32;98106.64;258252;1115;115248;-73
2021/01/31 18:34:04;;;;;;;87.68;34.63;;;;;;;-1.77;53.46;98099.75;258782;1114;115245;-74
2021/01/31 18:39:06;;;;;;;90.08;36.63;;;;;;;-1.83;53.55;98098.19;258812;1114;115725;-73
2021/01/31 18:44:10;;;;;;;91.93;37.43;;;;;;;-1.91;53.76;98090.55;258897;1114;115555;-74
2021/01/31 18:49:14;;;;;;;90.43;37.03;;;;;;;-2.00;53.70;98097.80;258828;1115;115463;-75
2021/01/31 18:54:18;;;;;;;96.50;37.93;;;;;;;-2.07;53.69;98089.28;258559;1115;115308;-73
2021/01/31 18:59:20;;;;;;;98.05;42.08;;;;;;;-2.13;53.88;98083.38;258911;1115;115281;-74
2021/01/31 19:04:23;;;;;;;119.80;45.55;;;;;;;-2.18;53.93;98086.09;258718;1116;115189;-76
2021/01/31 19:09:25;;;;;;;110.43;44.63;;;;;;;-2.22;53.77;98080.09;258695;1113;115472;-73
2021/01/31 19:14:30;;;;;;;113.55;45.55;;;;;;;-2.26;53.82;98081.08;258707;1116;115384;-76
2021/01/31 19:19:33;;;;;;;109.73;44.10;;;;;;;-2.30;53.77;98084.67;258752;1115;115656;-72
2021/01/31 19:24:35;;;;;;;101.18;40.80;;;;;;;-2.35;53.77;98078.70;258809;1112;116104;-72
2021/01/31 19:29:37;;;;;;;119.08;46.60;;;;;;;-2.36;54.00;98073.55;257380;1113;115400;-73
2021/01/31 19:34:40;;;;;;;119.63;48.58;;;;;;;-2.44;53.93;98074.60;258698;1115;115616;-71
2021/01/31 19:39:42;;;;;;;126.60;46.80;;;;;;;-2.50;54.06;98071.30;258760;1115;115512;-73
2021/01/31 19:44:44;;;;;;;126.23;51.20;;;;;;;-2.54;54.22;98067.92;257430;1115;115665;-72
2021/01/31 19:49:47;;;;;;;121.53;48.93;;;;;;;-2.60;54.18;98060.25;258695;1116;115449;-72
2021/01/31 19:54:49;;;;;;;126.75;49.80;;;;;;;-2.67;54.22;98056.95;258780;1115;115512;-72
2021/01/31 19:59:52;;;;;;;127.03;51.38;;;;;;;-2.73;54.04;98051.89;258733;1115;116146;-73
2021/01/31 20:04:55;;;;;;;136.03;52.35;;;;;;;-2.82;54.17;98044.29;258799;1116;115495;-74
2021/01/31 20:09:57;;;;;;;128.85;51.53;;;;;;;-2.84;54.24;98038.28;258788;1114;115420;-71
2021/01/31 20:15:01;;;;;;;125.15;48.58;;;;;;;-2.86;54.31;98038.31;258466;1116;115507;-70
2021/01/31 20:20:04;;;;;;;114.73;46.25;;;;;;;-2.88;54.37;98036.66;258844;1113;115516;-73
2021/01/31 20:25:07;;;;;;;116.03;47.25;;;;;;;-2.89;54.36;98037.53;258117;1115;116187;-73
2021/01/31 20:30:11;;;;;;;120.90;49.30;;;;;;;-2.88;54.64;98036.66;258769;1116;115427;-73
2021/01/31 20:35:18;;;;;;;130.43;52.63;;;;;;;-2.87;54.73;98034.00;258500;1115;115856;-74
2021/01/31 20:40:28;;;;;;;128.77;50.37;;;;;;;-2.89;54.34;98034.92;258910;1114;115419;-74
2021/01/31 20:45:34;;;;;;;129.53;52.18;;;;;;;-2.98;54.54;98036.02;258816;1115;115564;-74
2021/01/31 20:50:37;;;;;;;130.18;51.65;;;;;;;-3.03;54.37;98029.20;258269;1114;115580;-70
2021/01/31 20:55:40;;;;;;;131.93;54.05;;;;;;;-3.08;54.59;98031.08;258688;1115;115639;-72
2021/01/31 21:00:44;;;;;;;139.33;58.30;;;;;;;-3.14;54.61;98025.11;258790;1115;115329;-72
2021/01/31 21:05:50;;;;;;;157.05;58.45;;;;;;;-3.18;54.45;98023.48;258808;1116;115691;-73
2021/01/31 21:10:52;;;;;;;152.75;60.85;;;;;;;-3.22;54.46;98036.61;258730;1116;115509;-73
2021/01/31 21:15:54;;;;;;;142.13;61.40;;;;;;;-3.27;53.91;98026.28;258501;1115;115893;-72
2021/01/31 21:21:19;;;;;;;151.17;59.30;;;;;;;-3.35;54.29;98025.62;258732;1115;117103;-72
2021/01/31 21:26:21;;;;;;;157.15;61.18;;;;;;;-3.45;54.36;98009.36;258755;1114;115374;-72
2021/01/31 21:31:24;;;;;;;170.80;63.63;;;;;;;-3.53;54.50;98029.49;258699;1113;115714;-73
2021/01/31 21:36:27;;;;;;;165.25;63.68;;;;;;;-3.55;54.74;98033.01;258819;1115;115663;-71
2021/01/31 21:41:30;;;;;;;171.28;63.40;;;;;;;-3.59;54.98;98034.82;258673;1115;115875;-72
2021/01/31 21:46:32;;;;;;;173.33;67.20;;;;;;;-3.72;54.83;98047.22;258271;1115;115348;-72
2021/01/31 21:51:35;;;;;;;173.63;66.10;;;;;;;-3.81;54.55;98053.45;258752;1115;115642;-71
2021/01/31 21:56:38;;;;;;;175.03;67.78;;;;;;;-3.86;54.94;98052.70;258751;1114;116083;-72
2021/01/31 22:01:42;;;;;;;177.00;66.90;;;;;;;-3.82;55.23;98050.89;258145;1116;115633;-73
2021/01/31 22:06:44;;;;;;;175.30;66.63;;;;;;;-3.77;55.27;98048.19;258770;1114;115397;-72
2021/01/31 22:11:47;;;;;;;172.53;66.33;;;;;;;-3.81;55.39;98050.84;258739;1115;115582;-73
2021/01/31 22:16:49;;;;;;;183.23;69.30;;;;;;;-3.82;55.60;98038.75;258872;1115;115631;-73
2021/01/31 22:21:51;;;;;;;184.28;67.08;;;;;;;-3.82;55.53;98036.15;258764;1113;115345;-72
2021/01/31 22:26:53;;;;;;;171.53;63.80;;;;;;;-3.86;55.66;98026.71;258759;1115;115493;-73
2021/01/31 22:31:56;;;;;;;178.45;67.40;;;;;;;-3.81;55.61;98019.66;258789;1113;115651;-72
2021/01/31 22:36:58;;;;;;;188.80;67.38;;;;;;;-3.79;55.37;98021.39;258689;1115;115451;-73
2021/01/31 22:42:00;;;;;;;183.48;66.78;;;;;;;-3.86;55.39;98013.72;258960;1113;115545;-74
2021/01/31 22:47:03;;;;;;;175.68;66.45;;;;;;;-3.88;55.19;98015.48;258834;1115;116014;-72
2021/01/31 22:52:05;;;;;;;172.78;63.33;;;;;;;-3.90;55.61;98013.83;258650;1113;115503;-74
2021/01/31 22:57:08;;;;;;;170.58;65.48;;;;;;;-3.90;55.58;98000.83;258810;1114;115830;-74
2021/01/31 23:02:12;;;;;;;175.15;68.58;;;;;;;-3.91;55.55;98001.70;258790;1116;115538;-74
2021/01/31 23:07:14;;;;;;;188.63;70.73;;;;;;;-3.91;55.43;98005.15;258757;1116;115987;-72
2021/01/31 23:12:19;;;;;;;194.48;72.25;;;;;;;-3.94;55.04;98004.36;258770;1113;115574;-71